Time;durP1;ratioP1;P1;durP2;ratioP2;P2;SDS_P1;SDS_P2;PMS_P1;PMS_P2;Temp;Humidity;BMP_temperature;BMP_pressure;BME280_temperature;BME280_humidity;BME280_pressure;Samples;Min_cycle;Max_cycle;Signal;HPM_P1;HPM_P2
2022/10/12 00:00:09;;;;;;;1.17;0.70;;;9.20;65.40;;;;;;5114700;27;20038;-73
2022/10/12 00:02:35;;;;;;;2.92;0.98;;;9.20;65.50;;;;;;5134584;27;20398;-73
2022/10/12 00:05:01;;;;;;;2.08;0.80;;;9.20;65.60;;;;;;5117611;27;20125;-73
2022/10/12 00:07:27;;;;;;;3.70;1.38;;;9.20;65.70;;;;;;5134660;27;20066;-73
2022/10/12 00:09:52;;;;;;;2.50;0.85;;;9.20;65.70;;;;;;5134465;27;20123;-73
2022/10/12 00:12:18;;;;;;;2.65;1.00;;;9.20;65.50;;;;;;5131412;27;20043;-73
2022/10/12 00:14:44;;;;;;;2.08;0.80;;;9.20;65.30;;;;;;5117177;27;20039;-73
2022/10/12 00:17:09;;;;;;;1.95;0.82;;;9.10;65.20;;;;;;5117352;27;20039;-73
2022/10/12 00:19:35;;;;;;;1.20;0.80;;;9.10;65.20;;;;;;5117179;27;20139;-73
2022/10/12 00:22:01;;;;;;;2.83;1.05;;;9.10;65.40;;;;;;5134139;27;20066;-73
2022/10/12 00:24:26;;;;;;;2.72;1.13;;;9.10;65.60;;;;;;5117053;27;20088;-73
2022/10/12 00:26:52;;;;;;;2.15;0.85;;;9.10;65.80;;;;;;5134299;27;20033;-73
2022/10/12 00:29:18;;;;;;;3.50;1.30;;;9.10;65.80;;;;;;5133929;27;20418;-73
2022/10/12 00:31:43;;;;;;;2.00;0.88;;;9.10;66.30;;;;;;5097917;27;20454;-73
2022/10/12 00:34:09;;;;;;;2.72;0.93;;;9.10;65.70;;;;;;5133900;27;20047;-73
2022/10/12 00:36:35;;;;;;;1.88;1.05;;;9.10;65.80;;;;;;5099074;27;20039;-73
2022/10/12 00:39:03;;;;;;;2.42;1.00;;;9.10;65.90;;;;;;5134002;27;20080;-73
2022/10/12 00:41:32;;;;;;;2.67;1.00;;;9.10;66.00;;;;;;5133796;27;20089;-73
2022/10/12 00:43:58;;;;;;;4.03;0.90;;;9.10;66.10;;;;;;5133459;27;20066;-73
2022/10/12 00:46:23;;;;;;;2.60;1.10;;;9.00;66.00;;;;;;5133261;27;20089;-73
2022/10/12 00:48:56;;;;;;;2.22;0.95;;;9.00;66.00;;;;;;5133600;27;20054;-73
2022/10/12 00:51:22;;;;;;;2.28;0.90;;;9.10;66.40;;;;;;5133081;27;20063;-73
2022/10/12 00:53:54;;;;;;;4.40;1.00;;;9.10;65.80;;;;;;5116011;27;20041;-73
2022/10/12 00:56:23;;;;;;;1.90;1.08;;;9.10;65.80;;;;;;5132794;27;20040;-73
2022/10/12 00:58:50;;;;;;;2.33;1.00;;;9.10;65.80;;;;;;5115989;27;20032;-73
2022/10/12 01:01:16;;;;;;;2.97;1.55;;;9.10;65.90;;;;;;5114210;27;20577;-73
2022/10/12 01:03:43;;;;;;;3.80;1.00;;;9.10;65.90;;;;;;5136191;27;20043;-73
2022/10/12 01:06:08;;;;;;;2.50;0.77;;;9.10;65.70;;;;;;5131749;27;20047;-73
2022/10/12 01:08:36;;;;;;;2.17;0.70;;;9.10;65.60;;;;;;5116066;27;20386;-73
2022/10/12 01:11:02;;;;;;;2.80;0.80;;;9.10;65.70;;;;;;5149047;27;20039;-73
2022/10/12 01:13:29;;;;;;;2.60;1.00;;;9.10;65.80;;;;;;5132750;27;20039;-73
2022/10/12 01:16:12;;;;;;;2.92;1.05;;;9.10;65.80;;;;;;5133257;27;20031;-73
2022/10/12 01:18:54;;;;;;;3.65;1.38;;;9.10;66.00;;;;;;5133064;27;20032;-73
2022/10/12 01:21:21;;;;;;;2.78;1.17;;;9.20;66.10;;;;;;5132990;27;20036;-73
2022/10/12 01:24:25;;;;;;;3.17;1.40;;;9.20;66.00;;;;;;5132848;27;20035;-73
2022/10/12 01:27:06;;;;;;;2.25;1.02;;;9.10;65.90;;;;;;5033168;28;20037;-73
2022/10/12 01:30:09;;;;;;;2.17;1.10;;;9.10;66.00;;;;;;5026345;28;20049;-73
2022/10/12 01:32:52;;;;;;;2.47;0.95;;;9.10;66.00;;;;;;5113397;27;20490;-73
2022/10/12 01:35:42;;;;;;;2.35;1.00;;;9.10;66.10;;;;;;5123566;27;20086;-73
2022/10/12 01:38:20;;;;;;;2.83;1.63;;;9.10;66.10;;;;;;5132529;27;20039;-73
2022/10/12 01:41:08;;;;;;;4.05;1.55;;;9.10;66.00;;;;;;5132279;27;20402;-73
2022/10/12 01:43:37;;;;;;;3.50;1.42;;;9.10;65.90;;;;;;5132412;27;20110;-73
2022/10/12 01:46:16;;;;;;;2.63;1.08;;;9.10;65.80;;;;;;5132024;27;20097;-73
2022/10/12 01:48:44;;;;;;;3.70;1.08;;;9.10;66.00;;;;;;5133110;27;20035;-73
2022/10/12 01:51:15;;;;;;;2.47;1.10;;;9.10;66.10;;;;;;5114530;27;20047;-73
2022/10/12 01:53:48;;;;;;;4.15;1.33;;;9.10;66.30;;;;;;5132061;27;20043;-73
2022/10/12 01:56:56;;;;;;;3.22;1.10;;;9.10;66.40;;;;;;5131519;27;20035;-73
2022/10/12 01:59:31;;;;;;;3.88;1.38;;;9.10;66.40;;;;;;5121729;27;20096;-73
2022/10/12 02:02:17;;;;;;;1.73;1.33;;;9.00;66.50;;;;;;5132329;27;20466;-73
2022/10/12 02:04:45;;;;;;;2.85;1.52;;;9.10;66.70;;;;;;5114406;27;20398;-73
2022/10/12 02:07:48;;;;;;;2.72;1.13;;;9.10;66.60;;;;;;5132387;27;20391;-73
2022/10/12 02:10:24;;;;;;;4.90;1.30;;;9.10;66.60;;;;;;5118451;27;20127;-73
2022/10/12 02:12:53;;;;;;;3.25;1.30;;;9.10;66.70;;;;;;5131477;27;20059;-73
2022/10/12 02:15:21;;;;;;;3.67;2.00;;;9.10;66.70;;;;;;5138040;27;20039;-73
2022/10/12 02:17:50;;;;;;;5.05;2.25;;;9.10;66.70;;;;;;5131192;27;20156;-73
2022/10/12 02:20:17;;;;;;;2.30;1.30;;;9.10;66.60;;;;;;5131534;27;20077;-73
2022/10/12 02:22:46;;;;;;;3.17;1.42;;;9.10;66.60;;;;;;5131740;27;20035;-73
2022/10/12 02:25:15;;;;;;;3.05;1.23;;;9.10;66.70;;;;;;5127742;27;20035;-73
2022/10/12 02:27:45;;;;;;;3.05;1.40;;;9.10;66.70;;;;;;5114415;27;20058;-73
2022/10/12 02:30:11;;;;;;;3.10;1.60;;;9.10;66.80;;;;;;5131302;27;20031;-73
2022/10/12 02:32:49;;;;;;;3.65;1.80;;;9.10;66.80;;;;;;5114463;27;20030;-73
2022/10/12 02:35:40;;;;;;;4.93;1.60;;;9.10;66.80;;;;;;5131618;27;20110;-73
2022/10/12 02:38:06;;;;;;;6.95;2.40;;;9.10;66.80;;;;;;5131556;27;20071;-73
2022/10/12 02:40:41;;;;;;;5.57;2.67;;;9.10;66.80;;;;;;5131540;27;20061;-73
2022/10/12 02:43:16;;;;;;;3.22;1.83;;;9.00;66.50;;;;;;5131069;27;20043;-73
2022/10/12 02:45:45;;;;;;;4.68;1.60;;;9.10;66.60;;;;;;5132002;27;20510;-73
2022/10/12 02:48:15;;;;;;;4.93;2.08;;;9.10;66.70;;;;;;5131699;27;20030;-73
2022/10/12 02:50:41;;;;;;;3.78;1.63;;;9.10;66.90;;;;;;5113994;27;20126;-72
2022/10/12 02:53:07;;;;;;;2.75;1.60;;;9.00;66.80;;;;;;5113953;27;20474;-73
2022/10/12 02:55:46;;;;;;;3.35;1.63;;;9.10;66.90;;;;;;5114014;27;20079;-73
2022/10/12 02:58:12;;;;;;;4.95;2.47;;;9.00;66.90;;;;;;5131277;27;20501;-73
2022/10/12 03:00:37;;;;;;;3.75;1.73;;;9.00;66.90;;;;;;5113866;28;20035;-73
2022/10/12 03:03:03;;;;;;;3.38;1.77;;;9.00;66.80;;;;;;5114009;28;20053;-73
2022/10/12 03:05:29;;;;;;;5.07;1.90;;;9.00;66.90;;;;;;5131369;27;20424;-73
2022/10/12 03:07:54;;;;;;;5.72;2.20;;;9.00;66.80;;;;;;5114479;28;20540;-73
2022/10/12 03:10:20;;;;;;;3.63;2.55;;;9.00;66.80;;;;;;5113989;27;20482;-73
2022/10/12 03:12:46;;;;;;;4.32;2.28;;;9.10;67.10;;;;;;5114121;27;20071;-73
2022/10/12 03:15:11;;;;;;;3.97;2.20;;;9.00;66.50;;;;;;5130932;27;20044;-73
2022/10/12 03:17:37;;;;;;;4.85;2.28;;;9.00;66.40;;;;;;5114057;28;20031;-73
2022/10/12 03:20:03;;;;;;;3.17;1.73;;;9.00;66.50;;;;;;5114142;28;20033;-73
2022/10/12 03:22:29;;;;;;;5.22;2.20;;;8.90;66.50;;;;;;5130331;27;20035;-73
2022/10/12 03:24:54;;;;;;;3.60;2.20;;;8.90;66.50;;;;;;5131171;27;20065;-73
2022/10/12 03:27:20;;;;;;;4.53;2.40;;;9.00;66.70;;;;;;5131029;27;20091;-73
2022/10/12 03:29:46;;;;;;;6.90;1.90;;;8.90;66.70;;;;;;5132806;27;20043;-73
2022/10/12 03:32:11;;;;;;;4.72;1.83;;;8.90;66.70;;;;;;5117674;27;20043;-73
2022/10/12 03:34:37;;;;;;;3.60;1.60;;;8.90;66.70;;;;;;5134621;27;20067;-73
2022/10/12 03:37:03;;;;;;;3.03;1.98;;;8.90;66.70;;;;;;5134940;27;20050;-73
2022/10/12 03:39:28;;;;;;;5.60;2.42;;;8.90;66.80;;;;;;5134962;27;20036;-73
2022/10/12 03:41:54;;;;;;;5.07;2.35;;;8.90;66.70;;;;;;5117343;27;20122;-73
2022/10/12 03:44:19;;;;;;;5.13;1.90;;;8.90;66.60;;;;;;5134786;27;20126;-73
2022/10/12 03:46:45;;;;;;;5.10;2.28;;;8.90;66.30;;;;;;5134632;27;20126;-73
2022/10/12 03:49:11;;;;;;;2.90;1.65;;;8.90;66.00;;;;;;5117477;27;20438;-73
2022/10/12 03:51:36;;;;;;;3.00;2.10;;;8.80;66.40;;;;;;5134313;27;20379;-73
2022/10/12 03:54:02;;;;;;;5.18;2.10;;;8.80;66.00;;;;;;5134354;27;20039;-73
2022/10/12 03:56:28;;;;;;;2.65;1.70;;;8.80;66.10;;;;;;5134237;27;20063;-73
2022/10/12 03:58:53;;;;;;;4.05;1.80;;;8.80;66.30;;;;;;5117367;27;20126;-73
2022/10/12 04:01:19;;;;;;;3.58;1.85;;;8.80;66.40;;;;;;5117409;27;20043;-72
2022/10/12 04:03:45;;;;;;;5.18;2.20;;;8.80;66.50;;;;;;5134820;27;20161;-73
2022/10/12 04:06:10;;;;;;;2.47;1.50;;;8.70;66.50;;;;;;5133856;27;20072;-73
2022/10/12 04:08:36;;;;;;;3.55;1.90;;;8.70;66.50;;;;;;5134073;27;20039;-73
2022/10/12 04:11:02;;;;;;;3.40;1.90;;;8.70;66.50;;;;;;5134440;27;20394;-73
2022/10/12 04:13:27;;;;;;;4.47;2.40;;;8.70;66.50;;;;;;5134280;27;20034;-73
2022/10/12 04:15:53;;;;;;;4.68;2.53;;;8.80;66.60;;;;;;5100675;27;20027;-73
2022/10/12 04:18:19;;;;;;;5.88;1.67;;;8.70;66.40;;;;;;5134184;27;20122;-73
2022/10/12 04:20:47;;;;;;;3.67;2.20;;;8.70;66.30;;;;;;5099654;27;20159;-73
2022/10/12 04:23:13;;;;;;;4.85;2.13;;;8.70;66.50;;;;;;5134149;27;20043;-73
2022/10/12 04:25:38;;;;;;;4.72;2.00;;;8.60;66.50;;;;;;5117161;27;20114;-73
2022/10/12 04:28:04;;;;;;;5.18;2.00;;;8.70;66.70;;;;;;5116757;27;20443;-72
2022/10/12 04:30:31;;;;;;;3.53;2.15;;;8.70;66.80;;;;;;5116297;27;20429;-73
2022/10/12 04:32:57;;;;;;;5.47;2.15;;;8.70;66.80;;;;;;5133998;27;20035;-73
2022/10/12 04:35:23;;;;;;;3.42;2.17;;;8.70;66.80;;;;;;5134068;27;20039;-73
2022/10/12 04:37:49;;;;;;;8.40;2.85;;;8.70;66.80;;;;;;5133736;27;20034;-73
2022/10/12 04:40:14;;;;;;;6.47;2.67;;;8.70;66.90;;;;;;5133627;27;20031;-72
2022/10/12 04:42:40;;;;;;;5.28;2.40;;;8.70;66.80;;;;;;5115691;27;20035;-73
2022/10/12 04:45:06;;;;;;;4.75;2.13;;;8.70;66.90;;;;;;5116706;27;20039;-73
2022/10/12 04:47:34;;;;;;;5.35;2.55;;;8.70;66.90;;;;;;5132698;27;20521;-73
2022/10/12 04:49:59;;;;;;;3.88;2.33;;;8.70;66.90;;;;;;5116313;27;20047;-73
2022/10/12 04:52:25;;;;;;;4.93;2.40;;;8.70;66.90;;;;;;5116032;27;20050;-73
2022/10/12 04:54:51;;;;;;;5.00;2.65;;;8.70;66.90;;;;;;5134893;27;20063;-73
2022/10/12 04:57:16;;;;;;;5.63;2.60;;;8.70;66.90;;;;;;5116622;27;20077;-73
2022/10/12 04:59:42;;;;;;;6.47;2.40;;;8.70;67.30;;;;;;5133183;27;20034;-73
2022/10/12 05:02:08;;;;;;;5.75;2.88;;;8.60;66.80;;;;;;5133128;27;20035;-73
2022/10/12 05:04:33;;;;;;;5.28;2.55;;;8.70;66.90;;;;;;5133481;27;20043;-73
2022/10/12 05:06:59;;;;;;;4.65;2.70;;;8.60;66.80;;;;;;5133708;27;20042;-73
2022/10/12 05:09:24;;;;;;;5.25;2.63;;;8.60;66.90;;;;;;5116044;27;20058;-74
2022/10/12 05:11:50;;;;;;;6.45;2.90;;;8.60;66.90;;;;;;5098410;27;20084;-74
2022/10/12 05:14:16;;;;;;;3.45;2.20;;;8.60;66.80;;;;;;5116270;27;20031;-75
2022/10/12 05:16:41;;;;;;;4.60;2.85;;;8.60;66.70;;;;;;5116927;27;20043;-77
2022/10/12 05:19:07;;;;;;;4.70;2.08;;;8.60;66.60;;;;;;5097330;28;20035;-77
2022/10/12 05:21:33;;;;;;;3.75;1.90;;;8.60;66.30;;;;;;5097071;28;20096;-77
2022/10/12 05:23:58;;;;;;;5.00;2.35;;;8.70;66.10;;;;;;5096984;28;20042;-77
2022/10/12 05:26:24;;;;;;;3.25;2.00;;;8.60;65.80;;;;;;5114120;28;20085;-77
2022/10/12 05:28:50;;;;;;;4.18;1.95;;;8.60;65.60;;;;;;5100303;27;20045;-77
2022/10/12 05:31:16;;;;;;;3.72;2.45;;;8.60;65.40;;;;;;5117246;27;20399;-77
2022/10/12 05:33:41;;;;;;;4.75;2.50;;;8.60;65.70;;;;;;5117124;27;20037;-77
2022/10/12 05:36:07;;;;;;;6.20;2.95;;;8.50;65.10;;;;;;5117436;27;20043;-77
2022/10/12 05:38:33;;;;;;;7.07;3.42;;;8.50;65.10;;;;;;5099820;27;20046;-77
2022/10/12 05:40:59;;;;;;;7.13;3.80;;;8.50;65.20;;;;;;5116781;27;20043;-77
2022/10/12 05:43:25;;;;;;;6.97;4.03;;;8.50;65.30;;;;;;5116980;27;20039;-76
2022/10/12 05:45:50;;;;;;;7.43;4.28;;;8.50;65.40;;;;;;5134224;27;20061;-77
2022/10/12 05:48:16;;;;;;;9.23;4.47;;;8.40;65.40;;;;;;5116905;27;20115;-77
2022/10/12 05:50:42;;;;;;;9.65;4.57;;;8.40;65.60;;;;;;5112096;27;20079;-77
2022/10/12 05:53:07;;;;;;;8.27;3.95;;;8.40;65.70;;;;;;5116698;27;20096;-73
2022/10/12 05:55:33;;;;;;;7.25;4.03;;;8.40;65.80;;;;;;5116333;27;20042;-73
2022/10/12 05:57:59;;;;;;;7.55;3.83;;;8.30;65.80;;;;;;5133528;27;20111;-73
2022/10/12 06:00:24;;;;;;;7.00;4.22;;;8.30;65.90;;;;;;5116124;27;20126;-73
2022/10/12 06:02:50;;;;;;;5.28;3.65;;;8.30;66.00;;;;;;5133271;27;20035;-73
2022/10/12 06:05:16;;;;;;;7.72;4.20;;;8.20;66.10;;;;;;5133502;27;20050;-73
2022/10/12 06:07:42;;;;;;;9.35;4.30;;;8.30;66.20;;;;;;5133705;27;20482;-73
2022/10/12 06:10:08;;;;;;;9.43;3.92;;;8.20;66.30;;;;;;5115820;27;20039;-73
2022/10/12 06:12:33;;;;;;;5.65;3.50;;;8.20;66.40;;;;;;5116290;27;20038;-73
2022/10/12 06:14:59;;;;;;;8.57;4.15;;;8.10;66.40;;;;;;5133421;27;20047;-73
2022/10/12 06:17:25;;;;;;;7.22;3.70;;;8.10;66.50;;;;;;5116128;27;20039;-73
2022/10/12 06:19:50;;;;;;;6.47;4.07;;;8.10;66.60;;;;;;5133307;27;20400;-73
2022/10/12 06:22:16;;;;;;;7.63;4.18;;;8.10;66.60;;;;;;5116147;27;20482;-73
2022/10/12 06:24:42;;;;;;;6.10;3.70;;;8.10;66.70;;;;;;5133101;27;20058;-73
2022/10/12 06:27:08;;;;;;;9.40;4.07;;;8.10;66.70;;;;;;5133000;27;20462;-73
2022/10/12 06:29:34;;;;;;;6.90;4.28;;;8.00;66.70;;;;;;5132819;27;20039;-73
2022/10/12 06:32:00;;;;;;;6.25;4.30;;;8.10;66.90;;;;;;5082802;28;20122;-73
2022/10/12 06:34:26;;;;;;;6.78;3.30;;;8.10;66.90;;;;;;5118408;27;20515;-73
2022/10/12 06:36:51;;;;;;;8.82;4.18;;;8.00;66.90;;;;;;5132891;27;20164;-73
2022/10/12 06:39:17;;;;;;;8.27;4.15;;;8.00;67.00;;;;;;5115618;27;20119;-73
2022/10/12 06:41:43;;;;;;;6.55;3.47;;;8.00;67.10;;;;;;5132691;27;20135;-73
2022/10/12 06:44:09;;;;;;;7.07;3.97;;;8.00;67.20;;;;;;5132909;27;20079;-73
2022/10/12 06:46:34;;;;;;;5.78;3.60;;;8.00;67.20;;;;;;5132824;27;20039;-73
2022/10/12 06:49:00;;;;;;;8.68;4.82;;;8.00;67.30;;;;;;5115478;27;20042;-73
2022/10/12 06:51:26;;;;;;;8.80;5.53;;;8.00;67.40;;;;;;5114945;28;20083;-73
2022/10/12 06:53:55;;;;;;;7.97;4.82;;;8.00;67.60;;;;;;5112337;28;20054;-73
2022/10/12 06:56:21;;;;;;;8.23;5.20;;;8.00;68.30;;;;;;5148679;27;20397;-73
2022/10/12 06:58:46;;;;;;;12.05;7.40;;;8.00;68.00;;;;;;5149927;27;20042;-73
2022/10/12 07:01:12;;;;;;;11.88;7.43;;;8.00;68.30;;;;;;5132343;27;20371;-73
2022/10/12 07:03:38;;;;;;;10.82;6.80;;;8.00;68.60;;;;;;5098455;27;20043;-73
2022/10/12 07:06:13;;;;;;;12.90;7.18;;;8.00;69.00;;;;;;5132111;27;20054;-73
2022/10/12 07:08:40;;;;;;;15.60;6.97;;;8.00;69.40;;;;;;5132897;27;20371;-73
2022/10/12 07:11:08;;;;;;;12.80;6.50;;;8.00;69.70;;;;;;5131950;28;20040;-73
2022/10/12 07:13:34;;;;;;;12.23;7.03;;;8.00;70.00;;;;;;5132464;27;20118;-73
2022/10/12 07:16:00;;;;;;;12.57;7.68;;;8.00;70.30;;;;;;5132227;27;20118;-73
2022/10/12 07:18:26;;;;;;;16.52;8.05;;;8.00;70.60;;;;;;5115545;28;20039;-73
2022/10/12 07:20:56;;;;;;;17.30;8.88;;;8.00;71.00;;;;;;5115327;28;20070;-73
2022/10/12 07:23:22;;;;;;;14.45;8.15;;;8.10;71.50;;;;;;5115324;28;20122;-73
2022/10/12 07:25:51;;;;;;;13.93;9.80;;;8.10;71.60;;;;;;5115139;28;20131;-73
2022/10/12 07:28:17;;;;;;;14.57;8.93;;;8.10;71.80;;;;;;5115115;28;20513;-73
2022/10/12 07:30:44;;;;;;;15.45;9.13;;;8.10;72.00;;;;;;5132144;27;20042;-73
2022/10/12 07:33:10;;;;;;;20.17;8.70;;;8.10;72.10;;;;;;5132282;28;20486;-73
2022/10/12 07:35:36;;;;;;;14.13;9.90;;;8.20;72.30;;;;;;5132093;27;20039;-73
2022/10/12 07:38:01;;;;;;;15.30;9.32;;;8.20;72.30;;;;;;5115112;28;20039;-73
2022/10/12 07:40:28;;;;;;;16.58;9.30;;;8.30;72.50;;;;;;5132091;27;20054;-73
2022/10/12 07:42:54;;;;;;;14.05;7.68;;;8.30;72.70;;;;;;5132199;28;20119;-73
2022/10/12 07:45:19;;;;;;;12.52;8.55;;;8.40;72.80;;;;;;5131973;28;20482;-73
2022/10/12 07:47:46;;;;;;;16.60;10.95;;;8.40;72.90;;;;;;5115004;28;20046;-73
2022/10/12 07:50:12;;;;;;;13.38;8.65;;;8.40;72.90;;;;;;5131464;28;20161;-73
2022/10/12 07:52:37;;;;;;;16.55;9.98;;;8.50;73.00;;;;;;5098303;28;20149;-73
2022/10/12 07:55:03;;;;;;;15.55;9.32;;;8.50;72.90;;;;;;5098073;28;20497;-73
2022/10/12 07:57:29;;;;;;;15.98;10.25;;;8.50;72.90;;;;;;5115028;28;20042;-73
2022/10/12 07:59:55;;;;;;;16.10;9.57;;;8.60;73.00;;;;;;5149263;27;20440;-73
2022/10/12 08:02:20;;;;;;;19.30;10.25;;;8.70;73.10;;;;;;5094502;28;20039;-73
2022/10/12 08:04:46;;;;;;;19.60;9.60;;;8.80;73.20;;;;;;5098970;28;20051;-73
2022/10/12 08:07:12;;;;;;;16.98;10.32;;;8.80;73.20;;;;;;5111496;28;20036;-73
2022/10/12 08:09:37;;;;;;;18.65;9.75;;;8.90;73.20;;;;;;5094388;28;20036;-73
2022/10/12 08:12:03;;;;;;;16.13;9.93;;;8.90;73.20;;;;;;5098468;28;20063;-77
2022/10/12 08:14:29;;;;;;;14.65;9.18;;;8.90;73.00;;;;;;5128842;28;20036;-73
2022/10/12 08:16:55;;;;;;;18.45;10.18;;;9.00;73.00;;;;;;5125245;27;20088;-73
2022/10/12 08:19:21;;;;;;;16.05;10.25;;;9.10;73.30;;;;;;5118473;27;20039;-74
2022/10/12 08:21:48;;;;;;;14.68;9.45;;;9.10;72.90;;;;;;5135205;27;20043;-73
2022/10/12 08:24:14;;;;;;;12.73;9.48;;;9.20;73.00;;;;;;5135567;27;20390;-74
2022/10/12 08:26:40;;;;;;;15.48;8.95;;;9.20;73.00;;;;;;5135447;27;20039;-74
2022/10/12 08:29:07;;;;;;;13.93;8.95;;;9.40;73.00;;;;;;5135470;27;20035;-74
2022/10/12 08:31:33;;;;;;;13.07;8.35;;;9.40;72.90;;;;;;5135090;27;20042;-74
2022/10/12 08:33:59;;;;;;;14.07;8.77;;;9.60;72.90;;;;;;5135280;27;20134;-74
2022/10/12 08:36:25;;;;;;;16.13;9.00;;;9.60;72.60;;;;;;5097581;28;20036;-72
2022/10/12 08:38:54;;;;;;;13.95;8.10;;;9.80;72.70;;;;;;5131730;27;20032;-72
2022/10/12 08:41:19;;;;;;;12.48;7.07;;;9.90;72.70;;;;;;5110217;27;20031;-72
2022/10/12 08:44:19;;;;;;;11.15;7.40;;;10.00;72.40;;;;;;5135107;27;20398;-72
2022/10/12 08:46:45;;;;;;;17.15;7.95;;;10.30;72.00;;;;;;5134922;27;20039;-72
2022/10/12 08:49:18;;;;;;;13.23;8.25;;;10.50;71.50;;;;;;5117830;27;20049;-72
2022/10/12 08:52:09;;;;;;;13.60;6.75;;;10.80;70.90;;;;;;5134526;27;20505;-72
2022/10/12 08:54:42;;;;;;;10.70;5.88;;;11.00;70.20;;;;;;5134623;27;20451;-72
2022/10/12 08:57:16;;;;;;;11.35;6.72;;;11.20;69.60;;;;;;5135081;27;20399;-72
2022/10/12 08:59:42;;;;;;;12.68;6.15;;;11.50;69.10;;;;;;5134967;27;20039;-72
2022/10/12 09:02:37;;;;;;;11.05;5.53;;;11.70;69.10;;;;;;5117298;27;20380;-72
2022/10/12 09:05:07;;;;;;;12.35;5.63;;;12.00;68.50;;;;;;5134909;27;20055;-72
2022/10/12 09:07:44;;;;;;;9.38;5.25;;;12.30;68.30;;;;;;5134487;27;20047;-72
2022/10/12 09:10:48;;;;;;;10.82;4.45;;;12.60;67.30;;;;;;5134633;27;20367;-72
2022/10/12 09:13:39;;;;;;;10.18;4.38;;;12.90;65.60;;;;;;5120507;27;20133;-72
2022/10/12 09:16:27;;;;;;;8.30;3.92;;;13.30;64.20;;;;;;5134363;27;20039;-72
2022/10/12 09:18:56;;;;;;;11.68;4.25;;;13.50;63.30;;;;;;5134377;27;20039;-72
2022/10/12 09:21:26;;;;;;;12.73;4.38;;;13.70;62.80;;;;;;5134004;27;20561;-72
2022/10/12 09:23:55;;;;;;;13.50;4.75;;;13.90;61.70;;;;;;5134178;27;20130;-72
2022/10/12 09:26:41;;;;;;;13.85;4.88;;;14.10;60.80;;;;;;5134009;27;20031;-72
2022/10/12 09:29:28;;;;;;;11.90;4.30;;;14.30;58.90;;;;;;5133862;27;20035;-72
2022/10/12 09:32:47;;;;;;;8.85;4.07;;;14.40;58.30;;;;;;5133593;27;20043;-72
2022/10/12 09:35:14;;;;;;;11.73;4.10;;;14.60;58.90;;;;;;5134201;27;20031;-72
2022/10/12 09:37:40;;;;;;;7.28;3.08;;;14.70;58.60;;;;;;5133870;27;20042;-72
2022/10/12 09:40:15;;;;;;;8.13;3.55;;;14.90;58.40;;;;;;5116632;27;20039;-72
2022/10/12 09:42:42;;;;;;;9.77;3.10;;;15.00;58.30;;;;;;5133805;27;20045;-72
2022/10/12 09:45:13;;;;;;;10.32;4.13;;;15.10;57.80;;;;;;5133916;27;20042;-72
2022/10/12 09:47:38;;;;;;;9.88;4.95;;;15.30;56.90;;;;;;5133591;27;20119;-72
2022/10/12 09:50:06;;;;;;;10.93;4.78;;;15.40;56.30;;;;;;5133586;27;20130;-72
2022/10/12 09:52:35;;;;;;;10.63;4.57;;;15.40;55.50;;;;;;5133417;27;20046;-72
2022/10/12 09:55:04;;;;;;;13.45;4.80;;;15.50;55.10;;;;;;5133827;27;20501;-72
2022/10/12 09:57:38;;;;;;;10.32;4.13;;;15.50;55.10;;;;;;5116548;27;20538;-72
2022/10/12 10:00:25;;;;;;;9.75;4.18;;;15.60;55.30;;;;;;5116441;27;20042;-72
2022/10/12 10:02:52;;;;;;;12.93;4.60;;;15.60;55.50;;;;;;5132221;27;20061;-72
2022/10/12 10:05:28;;;;;;;12.05;4.28;;;15.60;55.10;;;;;;5133705;27;20458;-72
2022/10/12 10:08:13;;;;;;;9.00;3.67;;;15.60;54.60;;;;;;5133232;27;20103;-72
2022/10/12 10:10:52;;;;;;;;;;;15.70;54.50;;;;;;5116740;27;20035;-73
2022/10/12 10:13:20;;;;;;;13.68;5.38;;;15.60;55.10;;;;;;5130018;27;19963;-73
2022/10/12 10:15:49;;;;;;;15.65;4.70;;;15.60;54.90;;;;;;5112872;28;20433;-73
2022/10/12 10:18:34;;;;;;;14.63;6.80;;;15.60;54.50;;;;;;5115418;27;20043;-73
2022/10/12 10:21:02;;;;;;;6.38;3.55;;;15.70;54.70;;;;;;5133314;27;20071;-72
2022/10/12 10:23:33;;;;;;;8.38;3.70;;;15.70;54.90;;;;;;5132995;27;20103;-73
2022/10/12 10:26:03;;;;;;;10.10;4.03;;;15.80;55.10;;;;;;5132921;27;20047;-72
2022/10/12 10:28:31;;;;;;;8.68;3.70;;;15.80;54.70;;;;;;5132602;27;20046;-72
2022/10/12 10:31:01;;;;;;;9.50;3.42;;;15.90;54.70;;;;;;5124225;27;20039;-73
2022/10/12 10:34:10;;;;;;;9.02;3.83;;;16.00;54.50;;;;;;5113804;28;20055;-72
2022/10/12 10:36:55;;;;;;;10.48;4.00;;;16.10;54.30;;;;;;5118897;27;20091;-73
2022/10/12 10:39:47;;;;;;;10.35;3.00;;;16.20;54.30;;;;;;5133560;27;20038;-73
2022/10/12 10:42:33;;;;;;;9.30;4.20;;;16.30;53.70;;;;;;5123461;27;20058;-72
2022/10/12 10:45:30;;;;;;;10.38;3.55;;;16.30;53.10;;;;;;5134185;27;20447;-71
2022/10/12 10:48:25;;;;;;;9.85;3.78;;;16.40;52.10;;;;;;5133766;27;20037;-71
2022/10/12 10:50:59;;;;;;;10.23;4.22;;;16.40;52.50;;;;;;5132361;27;20418;-71
2022/10/12 10:53:29;;;;;;;9.05;3.55;;;16.40;52.60;;;;;;5132495;27;20100;-71
2022/10/12 10:56:06;;;;;;;10.95;3.90;;;16.40;52.50;;;;;;5132781;27;20042;-71
2022/10/12 10:59:42;;;;;;;11.43;3.20;;;16.40;52.30;;;;;;5132788;27;20444;-71
2022/10/12 11:02:22;;;;;;;9.10;3.53;;;16.40;52.60;;;;;;5009494;28;20044;-71
2022/10/12 11:04:54;;;;;;;12.98;4.28;;;16.40;52.40;;;;;;5073837;28;20369;-72
2022/10/12 11:07:31;;;;;;;8.88;3.80;;;16.40;51.80;;;;;;5121158;28;20047;-71
2022/10/12 11:10:01;;;;;;;9.57;3.20;;;16.40;51.70;;;;;;5132463;27;20047;-71
2022/10/12 11:12:36;;;;;;;7.43;3.13;;;16.30;51.40;;;;;;5132236;28;20038;-71
2022/10/12 11:15:14;;;;;;;8.43;3.58;;;16.30;51.90;;;;;;5132516;27;20060;-71
2022/10/12 11:17:45;;;;;;;9.40;3.35;;;16.30;51.60;;;;;;5132261;27;20031;-71
2022/10/12 11:20:25;;;;;;;7.88;2.90;;;16.30;51.40;;;;;;5132195;27;20036;-71
2022/10/12 11:23:03;;;;;;;8.70;2.75;;;16.30;50.70;;;;;;5115012;28;20277;-71
2022/10/12 11:25:37;;;;;;;8.27;2.63;;;16.30;50.20;;;;;;5115287;28;20178;-71
2022/10/12 11:28:06;;;;;;;6.85;2.67;;;16.20;50.40;;;;;;5132204;28;20035;-71
2022/10/12 11:30:40;;;;;;;7.70;2.58;;;16.20;49.70;;;;;;5131852;28;20054;-71
2022/10/12 11:33:12;;;;;;;8.10;2.63;;;16.20;50.20;;;;;;5131985;27;20038;-71
2022/10/12 11:35:44;;;;;;;7.10;3.45;;;16.20;49.90;;;;;;5132608;28;20062;-71
2022/10/12 11:38:31;;;;;;;8.10;2.90;;;16.20;50.50;;;;;;5132237;27;20385;-71
2022/10/12 11:41:44;;;;;;;7.35;2.67;;;16.20;50.80;;;;;;5132009;28;20119;-71
2022/10/12 11:44:19;;;;;;;7.05;2.17;;;16.20;50.00;;;;;;5129944;28;20451;-71
2022/10/12 11:46:52;;;;;;;10.88;3.13;;;16.20;49.60;;;;;;5132203;28;20565;-71
2022/10/12 11:49:26;;;;;;;10.88;2.88;;;16.20;49.70;;;;;;5131790;28;20035;-71
2022/10/12 11:51:55;;;;;;;6.60;2.22;;;16.10;49.50;;;;;;5135024;27;20055;-71
2022/10/12 11:54:50;;;;;;;8.60;2.45;;;16.20;49.70;;;;;;5118523;27;20031;-71
2022/10/12 11:57:21;;;;;;;8.05;2.33;;;16.30;49.90;;;;;;5064661;27;20064;-71
2022/10/12 11:59:56;;;;;;;8.93;2.72;;;16.20;48.90;;;;;;5135579;27;20512;-71
2022/10/12 12:02:40;;;;;;;7.50;2.40;;;16.20;48.50;;;;;;5115438;28;20085;-71
2022/10/12 12:05:12;;;;;;;7.63;1.93;;;16.20;48.50;;;;;;5136098;27;20042;-71
2022/10/12 12:07:53;;;;;;;7.13;2.22;;;16.20;48.20;;;;;;5135804;27;20281;-71
2022/10/12 12:10:30;;;;;;;7.53;1.92;;;16.20;47.70;;;;;;5119619;27;20043;-71
2022/10/12 12:13:16;;;;;;;7.13;2.20;;;16.10;47.70;;;;;;5135518;27;20647;-71
2022/10/12 12:15:51;;;;;;;6.00;2.42;;;16.20;47.80;;;;;;5135681;27;20039;-71
2022/10/12 12:18:19;;;;;;;6.57;2.30;;;16.10;47.50;;;;;;5118204;27;21368;-71
2022/10/12 12:20:48;;;;;;;8.90;2.55;;;16.20;47.50;;;;;;5135649;27;20447;-71
2022/10/12 12:23:32;;;;;;;8.55;2.03;;;16.10;47.10;;;;;;5135282;27;20587;-71
2022/10/12 12:26:10;;;;;;;9.45;2.63;;;16.10;46.70;;;;;;5135435;27;20081;-71
2022/10/12 12:28:47;;;;;;;10.82;3.25;;;16.10;46.50;;;;;;5135510;27;20066;-71
2022/10/12 12:31:23;;;;;;;8.32;2.97;;;16.00;47.10;;;;;;5135043;27;20043;-71
2022/10/12 12:34:00;;;;;;;7.32;3.30;;;16.00;47.60;;;;;;5117996;27;20470;-71
2022/10/12 12:36:31;;;;;;;11.23;3.70;;;16.00;47.70;;;;;;5135361;27;20066;-71
2022/10/12 12:38:57;;;;;;;8.25;2.97;;;16.00;47.80;;;;;;5117965;27;20070;-71
2022/10/12 12:41:44;;;;;;;8.30;3.28;;;16.00;48.40;;;;;;5134930;27;20070;-71
2022/10/12 12:44:33;;;;;;;9.20;3.40;;;16.00;49.00;;;;;;5134922;27;20042;-71
2022/10/12 12:46:59;;;;;;;10.23;3.53;;;16.00;49.50;;;;;;5117908;27;20039;-71
2022/10/12 12:49:44;;;;;;;11.23;3.05;;;16.00;49.60;;;;;;5134954;27;20126;-71
2022/10/12 12:52:31;;;;;;;10.73;3.35;;;16.00;49.70;;;;;;5134489;27;20039;-71
2022/10/12 12:55:15;;;;;;;10.23;4.60;;;16.00;50.40;;;;;;5134844;27;20039;-71
2022/10/12 12:57:53;;;;;;;8.90;4.38;;;16.00;50.20;;;;;;5134842;27;20504;-71
2022/10/12 13:00:19;;;;;;;8.55;3.75;;;16.00;50.40;;;;;;5134394;27;20031;-71
2022/10/12 13:03:17;;;;;;;10.40;3.83;;;16.00;50.80;;;;;;5134428;27;20195;-71
2022/10/12 13:05:52;;;;;;;10.55;4.45;;;16.00;50.80;;;;;;5117596;27;20099;-71
2022/10/12 13:08:26;;;;;;;11.23;4.10;;;16.00;50.90;;;;;;5134519;27;20122;-77
2022/10/12 13:11:04;;;;;;;10.48;4.43;;;16.00;51.00;;;;;;5117285;27;20113;-77